Time;durP1;ratioP1;P1;durP2;ratioP2;P2;SDS_P1;SDS_P2;PMS_P1;PMS_P2;Temp;Humidity;BMP_temperature;BMP_pressure;BME280_temperature;BME280_humidity;BME280_pressure;Samples;Min_cycle;Max_cycle;Signal;HPM_P1;HPM_P2
2021/06/23 00:01:11;;;;;;;11.57;7.25;;;;;;;;;;5033150;28;20096;-62
2021/06/23 00:03:57;;;;;;;13.52;8.18;;;;;;;;;;5007256;28;20049;-64
2021/06/23 00:06:42;;;;;;;13.88;8.95;;;;;;;;;;5034264;28;20045;-63
2021/06/23 00:09:28;;;;;;;15.05;9.02;;;;;;;;;;5034058;28;20052;-63
2021/06/23 00:12:16;;;;;;;13.98;8.52;;;;;;;;;;5030058;28;20038;-63
2021/06/23 00:15:01;;;;;;;13.38;9.85;;;;;;;;;;5028239;28;20057;-64
2021/06/23 00:17:47;;;;;;;17.50;9.48;;;;;;;;;;5029906;28;20045;-63
2021/06/23 00:20:32;;;;;;;14.55;8.80;;;;;;;;;;5019030;28;20042;-63
2021/06/23 00:23:18;;;;;;;13.70;9.90;;;;;;;;;;5029774;28;20060;-63
2021/06/23 00:26:03;;;;;;;19.10;10.57;;;;;;;;;;5033762;28;20503;-64
2021/06/23 00:28:48;;;;;;;15.40;9.82;;;;;;;;;;5019361;28;20045;-64
2021/06/23 00:31:34;;;;;;;17.15;9.63;;;;;;;;;;5032079;28;20042;-64
2021/06/23 00:34:19;;;;;;;15.98;8.85;;;;;;;;;;5033836;28;20049;-64
2021/06/23 00:37:05;;;;;;;10.00;8.82;;;;;;;;;;5033918;28;20058;-64
2021/06/23 00:39:50;;;;;;;15.27;9.07;;;;;;;;;;5033509;28;20053;-64
2021/06/23 00:42:35;;;;;;;12.93;8.85;;;;;;;;;;5031977;28;20049;-64
2021/06/23 00:45:21;;;;;;;17.58;9.02;;;;;;;;;;5018497;28;20139;-64
2021/06/23 00:48:09;;;;;;;15.20;8.95;;;;;;;;;;5032727;28;20438;-63
2021/06/23 00:51:00;;;;;;;13.90;8.73;;;;;;;;;;5018407;28;20050;-64
2021/06/23 00:54:03;;;;;;;14.73;8.43;;;;;;;;;;5020248;28;20041;-64
2021/06/23 00:56:49;;;;;;;19.77;10.05;;;;;;;;;;5018676;28;20136;-64
2021/06/23 00:59:35;;;;;;;12.50;8.95;;;;;;;;;;5018204;28;20076;-64
2021/06/23 01:02:20;;;;;;;15.23;10.02;;;;;;;;;;5018334;28;20052;-64
2021/06/23 01:05:07;;;;;;;13.45;9.80;;;;;;;;;;5033160;28;20513;-64
2021/06/23 01:07:53;;;;;;;15.98;9.50;;;;;;;;;;5018065;28;20056;-64
2021/06/23 01:10:38;;;;;;;17.42;8.63;;;;;;;;;;5016398;28;20111;-64
2021/06/23 01:13:30;;;;;;;14.32;8.95;;;;;;;;;;5033235;28;20053;-63
2021/06/23 01:16:15;;;;;;;16.98;8.27;;;;;;;;;;5032748;28;20048;-64
2021/06/23 01:19:01;;;;;;;14.38;9.10;;;;;;;;;;5032976;28;20050;-64
2021/06/23 01:21:52;;;;;;;20.95;9.60;;;;;;;;;;5031007;28;20103;-64
2021/06/23 01:24:37;;;;;;;18.90;10.23;;;;;;;;;;5032684;28;20053;-64
2021/06/23 01:27:23;;;;;;;16.25;10.63;;;;;;;;;;5032239;28;20677;-63
2021/06/23 01:30:09;;;;;;;15.60;9.50;;;;;;;;;;5032580;28;20056;-64
2021/06/23 01:33:04;;;;;;;18.42;10.05;;;;;;;;;;5030688;28;20046;-64
2021/06/23 01:35:50;;;;;;;21.70;11.02;;;;;;;;;;5031742;28;20052;-64
2021/06/23 01:38:36;;;;;;;12.50;8.98;;;;;;;;;;5031673;28;20053;-64
2021/06/23 01:41:23;;;;;;;13.82;9.50;;;;;;;;;;5030438;28;20136;-64
2021/06/23 01:44:08;;;;;;;17.48;9.38;;;;;;;;;;5017726;28;20059;-64
2021/06/23 01:46:54;;;;;;;10.93;8.52;;;;;;;;;;5032491;28;20175;-64
2021/06/23 01:49:40;;;;;;;11.43;8.65;;;;;;;;;;5032158;28;20049;-64
2021/06/23 01:52:26;;;;;;;14.75;10.40;;;;;;;;;;5028795;28;20050;-64
2021/06/23 01:55:27;;;;;;;15.35;9.57;;;;;;;;;;5032284;28;20069;-64
2021/06/23 01:58:13;;;;;;;15.57;10.30;;;;;;;;;;5032183;28;20064;-64
2021/06/23 02:01:32;;;;;;;16.92;9.80;;;;;;;;;;5018339;28;20053;-64
2021/06/23 02:04:25;;;;;;;16.17;9.50;;;;;;;;;;5014787;28;20499;-64
2021/06/23 02:07:31;;;;;;;14.98;9.57;;;;;;;;;;5019517;28;20041;-64
2021/06/23 02:10:22;;;;;;;12.75;9.77;;;;;;;;;;5016867;28;20045;-64
2021/06/23 02:13:29;;;;;;;14.07;9.98;;;;;;;;;;5027984;28;20046;-64
2021/06/23 02:16:25;;;;;;;15.52;9.88;;;;;;;;;;5016415;28;20056;-64
2021/06/23 02:19:15;;;;;;;13.52;9.55;;;;;;;;;;5017791;28;20123;-63
2021/06/23 02:22:20;;;;;;;17.65;9.98;;;;;;;;;;5030825;28;20053;-64
2021/06/23 02:25:13;;;;;;;15.05;9.75;;;;;;;;;;5016307;28;20493;-64
2021/06/23 02:28:06;;;;;;;15.40;10.90;;;;;;;;;;5015188;28;20392;-64
2021/06/23 02:30:52;;;;;;;17.85;9.70;;;;;;;;;;5016988;28;20041;-64
2021/06/23 02:33:39;;;;;;;14.82;9.38;;;;;;;;;;5012885;28;20045;-64
2021/06/23 02:36:25;;;;;;;15.73;9.82;;;;;;;;;;5017193;28;20057;-64
2021/06/23 02:39:10;;;;;;;12.73;9.18;;;;;;;;;;5018941;28;20053;-64
2021/06/23 02:41:57;;;;;;;11.82;9.25;;;;;;;;;;5034063;28;20053;-63
2021/06/23 02:44:42;;;;;;;13.13;10.25;;;;;;;;;;5005616;28;20169;-63
2021/06/23 02:47:28;;;;;;;13.63;9.73;;;;;;;;;;5025313;28;20045;-64
2021/06/23 02:50:32;;;;;;;16.77;9.98;;;;;;;;;;5000895;28;20178;-64
2021/06/23 02:53:33;;;;;;;13.27;9.93;;;;;;;;;;5010227;28;20045;-63
2021/06/23 02:56:19;;;;;;;18.20;10.65;;;;;;;;;;5006668;28;20415;-63
2021/06/23 02:59:07;;;;;;;13.93;10.00;;;;;;;;;;5035696;28;20053;-63
2021/06/23 03:01:53;;;;;;;20.45;12.63;;;;;;;;;;5019181;28;20057;-63
2021/06/23 03:04:44;;;;;;;18.90;12.48;;;;;;;;;;5027303;28;20044;-64
2021/06/23 03:07:33;;;;;;;18.15;11.68;;;;;;;;;;5035406;28;20049;-64
2021/06/23 03:10:26;;;;;;;14.38;12.05;;;;;;;;;;5035126;28;20152;-64
2021/06/23 03:13:28;;;;;;;17.98;10.70;;;;;;;;;;5032514;28;20050;-64
2021/06/23 03:16:33;;;;;;;19.80;13.32;;;;;;;;;;5035143;28;20045;-64
2021/06/23 03:19:19;;;;;;;15.18;12.13;;;;;;;;;;5034221;28;20067;-63
2021/06/23 03:22:07;;;;;;;22.95;13.75;;;;;;;;;;5035338;28;20144;-63
2021/06/23 03:24:52;;;;;;;24.40;16.33;;;;;;;;;;5032653;28;20049;-63
2021/06/23 03:27:39;;;;;;;20.00;14.45;;;;;;;;;;5034137;28;20428;-64
2021/06/23 03:30:25;;;;;;;14.18;12.65;;;;;;;;;;5019802;28;20050;-64
2021/06/23 03:33:11;;;;;;;19.67;12.90;;;;;;;;;;5034959;28;20050;-64
2021/06/23 03:36:31;;;;;;;19.25;12.48;;;;;;;;;;4994407;28;20593;-64
2021/06/23 03:39:17;;;;;;;17.58;13.75;;;;;;;;;;4980601;28;20058;-63
2021/06/23 03:42:13;;;;;;;17.67;13.55;;;;;;;;;;4980591;28;20054;-63
2021/06/23 03:44:59;;;;;;;21.23;12.48;;;;;;;;;;5023039;22;20042;-63
2021/06/23 03:47:45;;;;;;;19.90;13.38;;;;;;;;;;5019873;28;20439;-63
2021/06/23 03:50:34;;;;;;;20.20;13.88;;;;;;;;;;5018973;28;20115;-63
2021/06/23 03:53:21;;;;;;;21.08;13.05;;;;;;;;;;5019680;28;20045;-63
2021/06/23 03:56:07;;;;;;;18.92;13.57;;;;;;;;;;5012066;28;20038;-63
2021/06/23 03:58:52;;;;;;;16.98;13.25;;;;;;;;;;5013899;28;20057;-64
2021/06/23 04:01:39;;;;;;;14.82;11.63;;;;;;;;;;5027497;28;20149;-64
2021/06/23 04:04:33;;;;;;;16.83;11.07;;;;;;;;;;5014421;28;20131;-63
2021/06/23 04:07:27;;;;;;;16.70;11.23;;;;;;;;;;5015834;28;20046;-64
2021/06/23 04:10:13;;;;;;;17.13;11.32;;;;;;;;;;5016991;28;20046;-64
2021/06/23 04:12:59;;;;;;;17.05;12.05;;;;;;;;;;5017040;28;20500;-63
2021/06/23 04:15:46;;;;;;;15.30;12.00;;;;;;;;;;5015764;28;20480;-64
2021/06/23 04:18:32;;;;;;;25.95;11.32;;;;;;;;;;5017057;28;20049;-64
2021/06/23 04:21:18;;;;;;;14.52;11.43;;;;;;;;;;5016382;28;20049;-64
2021/06/23 04:24:06;;;;;;;17.25;11.07;;;;;;;;;;5001918;28;20050;-64
2021/06/23 04:26:56;;;;;;;14.82;11.82;;;;;;;;;;5000668;28;20056;-64
2021/06/23 04:29:46;;;;;;;18.35;13.40;;;;;;;;;;5028509;28;20042;-64
2021/06/23 04:32:32;;;;;;;17.05;12.38;;;;;;;;;;5029394;28;20108;-64
2021/06/23 04:35:31;;;;;;;16.77;12.20;;;;;;;;;;5029426;28;20046;-64
2021/06/23 04:38:16;;;;;;;20.00;12.27;;;;;;;;;;5016781;28;20050;-63
2021/06/23 04:41:02;;;;;;;14.73;12.60;;;;;;;;;;5029194;28;20042;-64
2021/06/23 04:43:51;;;;;;;20.30;11.52;;;;;;;;;;5016792;28;20046;-64
2021/06/23 04:46:37;;;;;;;14.02;10.85;;;;;;;;;;5015754;28;20108;-64
2021/06/23 04:49:22;;;;;;;15.10;10.80;;;;;;;;;;5001475;28;20096;-64
2021/06/23 04:52:28;;;;;;;13.43;10.27;;;;;;;;;;5016127;28;20416;-63
2021/06/23 04:55:16;;;;;;;14.07;10.25;;;;;;;;;;5001563;28;20500;-64
2021/06/23 04:58:02;;;;;;;14.55;9.65;;;;;;;;;;5014460;28;20048;-63
2021/06/23 05:00:48;;;;;;;11.05;9.35;;;;;;;;;;5028059;28;20045;-63
2021/06/23 05:03:43;;;;;;;13.82;10.63;;;;;;;;;;5028542;28;20507;-64
2021/06/23 05:06:28;;;;;;;14.98;9.75;;;;;;;;;;5015739;28;20053;-63
2021/06/23 05:09:13;;;;;;;10.73;8.98;;;;;;;;;;5014005;28;20042;-64
2021/06/23 05:11:59;;;;;;;16.77;9.80;;;;;;;;;;5015917;28;20045;-64
2021/06/23 05:14:44;;;;;;;14.07;8.93;;;;;;;;;;5015652;28;20069;-64
2021/06/23 05:17:30;;;;;;;13.18;9.43;;;;;;;;;;5015535;28;20471;-64
2021/06/23 05:20:15;;;;;;;13.98;9.52;;;;;;;;;;4998939;28;20109;-63
2021/06/23 05:23:06;;;;;;;11.18;8.00;;;;;;;;;;5014192;28;20671;-63
2021/06/23 05:25:51;;;;;;;14.32;9.20;;;;;;;;;;5013238;28;20038;-63
2021/06/23 05:28:37;;;;;;;13.23;6.10;;;;;;;;;;5014318;28;20076;-63
2021/06/23 05:31:22;;;;;;;13.27;6.28;;;;;;;;;;5013386;28;20046;-64
2021/06/23 05:34:08;;;;;;;7.63;5.50;;;;;;;;;;5011758;28;20095;-64
2021/06/23 05:36:53;;;;;;;9.95;5.63;;;;;;;;;;5004126;28;20116;-64
2021/06/23 05:39:38;;;;;;;9.68;5.68;;;;;;;;;;5006754;28;20056;-63
2021/06/23 05:42:24;;;;;;;7.78;5.57;;;;;;;;;;5003873;28;20491;-64
2021/06/23 05:45:09;;;;;;;10.05;6.40;;;;;;;;;;5003392;28;20041;-64
2021/06/23 05:47:54;;;;;;;9.68;5.78;;;;;;;;;;5002008;28;20084;-64
2021/06/23 05:50:41;;;;;;;8.05;5.15;;;;;;;;;;5011301;28;20188;-64
2021/06/23 05:53:27;;;;;;;8.07;5.05;;;;;;;;;;5012992;28;20076;-64
2021/06/23 05:56:14;;;;;;;13.88;6.22;;;;;;;;;;5032106;28;20057;-64
2021/06/23 05:58:59;;;;;;;10.25;5.22;;;;;;;;;;5031827;28;20046;-64
2021/06/23 06:01:44;;;;;;;9.10;4.20;;;;;;;;;;5011427;28;20462;-64
2021/06/23 06:04:30;;;;;;;9.43;4.13;;;;;;;;;;5012322;28;20050;-63
2021/06/23 06:07:16;;;;;;;7.57;4.55;;;;;;;;;;5013346;28;20042;-64
2021/06/23 06:10:01;;;;;;;12.90;4.65;;;;;;;;;;5011349;28;20092;-63
2021/06/23 06:12:47;;;;;;;11.27;3.97;;;;;;;;;;5012776;28;20050;-64
2021/06/23 06:15:32;;;;;;;8.30;3.92;;;;;;;;;;5011176;28;20053;-63
2021/06/23 06:18:17;;;;;;;10.77;3.65;;;;;;;;;;5012037;28;20048;-65
2021/06/23 06:21:03;;;;;;;7.78;3.55;;;;;;;;;;5012419;28;20492;-65
2021/06/23 06:23:48;;;;;;;8.13;3.20;;;;;;;;;;5012758;28;20121;-64
2021/06/23 06:26:34;;;;;;;7.15;2.28;;;;;;;;;;5012420;28;20050;-64
2021/06/23 06:29:19;;;;;;;7.50;3.08;;;;;;;;;;4996714;28;20042;-64
2021/06/23 06:32:05;;;;;;;7.57;2.75;;;;;;;;;;4993561;28;20053;-64
2021/06/23 06:34:50;;;;;;;7.55;2.80;;;;;;;;;;4993808;28;20053;-64
2021/06/23 06:37:35;;;;;;;7.93;2.60;;;;;;;;;;4993555;28;20054;-64
2021/06/23 06:40:21;;;;;;;6.97;2.22;;;;;;;;;;5012694;28;20135;-65
2021/06/23 06:43:06;;;;;;;10.00;2.92;;;;;;;;;;5013238;28;20054;-64
2021/06/23 06:45:52;;;;;;;8.13;2.95;;;;;;;;;;5013803;28;20046;-65
2021/06/23 06:48:38;;;;;;;9.10;2.70;;;;;;;;;;5012736;28;20050;-65
2021/06/23 06:51:24;;;;;;;6.70;2.50;;;;;;;;;;5012417;28;20432;-65
2021/06/23 06:54:09;;;;;;;11.98;2.97;;;;;;;;;;5012871;28;20128;-65
2021/06/23 06:56:55;;;;;;;7.18;2.38;;;;;;;;;;5021826;28;20054;-65
2021/06/23 06:59:40;;;;;;;6.88;2.22;;;;;;;;;;4999471;28;20045;-65
2021/06/23 07:02:25;;;;;;;6.25;2.63;;;;;;;;;;5011790;28;20045;-65
2021/06/23 07:05:11;;;;;;;8.43;2.97;;;;;;;;;;5011714;28;20535;-64
2021/06/23 07:07:56;;;;;;;7.45;2.58;;;;;;;;;;5009619;28;20069;-64
2021/06/23 07:10:42;;;;;;;11.63;2.95;;;;;;;;;;5011373;28;20667;-64
2021/06/23 07:13:27;;;;;;;6.80;2.78;;;;;;;;;;5011697;28;20099;-65
2021/06/23 07:16:12;;;;;;;5.47;1.95;;;;;;;;;;5011662;28;20052;-65
2021/06/23 07:18:57;;;;;;;6.95;2.70;;;;;;;;;;5009209;28;20180;-65
2021/06/23 07:21:43;;;;;;;17.60;2.78;;;;;;;;;;5011483;28;20042;-64
2021/06/23 07:24:28;;;;;;;7.10;2.40;;;;;;;;;;5012493;28;20132;-65
2021/06/23 07:27:14;;;;;;;7.47;2.47;;;;;;;;;;5015323;28;20581;-65
2021/06/23 07:29:59;;;;;;;10.00;2.53;;;;;;;;;;5013876;28;20127;-65
2021/06/23 07:32:54;;;;;;;6.93;2.22;;;;;;;;;;5015209;28;20403;-65
2021/06/23 07:38:45;;;;;;;5.45;2.40;;;;;;;;;;5011438;28;20551;-65
2021/06/23 07:41:30;;;;;;;7.22;2.28;;;;;;;;;;4995409;28;20503;-65
2021/06/23 07:44:19;;;;;;;6.00;1.63;;;;;;;;;;4995584;28;20390;-65
2021/06/23 07:47:06;;;;;;;8.10;2.33;;;;;;;;;;4995148;28;20054;-65
2021/06/23 07:49:52;;;;;;;4.35;1.95;;;;;;;;;;5004306;28;20492;-65
2021/06/23 07:52:44;;;;;;;5.78;1.83;;;;;;;;;;5015119;28;20400;-65
2021/06/23 07:55:45;;;;;;;11.57;2.30;;;;;;;;;;5015073;28;20050;-65
2021/06/23 08:02:08;;;;;;;9.60;2.20;;;;;;;;;;5014515;28;20057;-65
2021/06/23 08:10:50;;;;;;;9.15;2.67;;;;;;;;;;5002815;28;20483;-65
2021/06/23 08:13:35;;;;;;;9.90;2.30;;;;;;;;;;4980806;28;20064;-65
2021/06/23 08:16:20;;;;;;;6.68;1.83;;;;;;;;;;4994721;28;20054;-65
2021/06/23 08:19:06;;;;;;;14.05;3.75;;;;;;;;;;4994728;28;20609;-65
2021/06/23 08:21:51;;;;;;;9.25;2.47;;;;;;;;;;5011338;28;20054;-65
2021/06/23 08:24:36;;;;;;;7.57;2.50;;;;;;;;;;5014315;28;20092;-65
2021/06/23 08:27:22;;;;;;;9.45;2.50;;;;;;;;;;5013431;28;20200;-65
2021/06/23 08:30:07;;;;;;;6.00;1.92;;;;;;;;;;5010444;28;20096;-63
2021/06/23 08:32:55;;;;;;;6.57;2.00;;;;;;;;;;5004044;28;20146;-63
2021/06/23 08:35:40;;;;;;;5.57;2.17;;;;;;;;;;5012026;28;20671;-63
2021/06/23 08:38:26;;;;;;;4.55;1.73;;;;;;;;;;5011091;28;20136;-63
2021/06/23 08:41:11;;;;;;;5.45;1.65;;;;;;;;;;5013006;28;20085;-63
2021/06/23 08:43:57;;;;;;;9.85;2.20;;;;;;;;;;5013201;28;20048;-63
2021/06/23 08:46:42;;;;;;;7.07;2.13;;;;;;;;;;5013755;28;20073;-64
2021/06/23 08:49:28;;;;;;;6.10;2.50;;;;;;;;;;5013627;28;20042;-64
2021/06/23 08:52:13;;;;;;;7.47;2.20;;;;;;;;;;5012692;28;20500;-65
2021/06/23 08:54:58;;;;;;;8.63;2.00;;;;;;;;;;5013628;28;20061;-64
2021/06/23 08:57:44;;;;;;;5.85;2.08;;;;;;;;;;5013735;28;20050;-64
2021/06/23 09:00:29;;;;;;;11.07;2.45;;;;;;;;;;5012465;28;20507;-64
2021/06/23 09:03:15;;;;;;;10.60;4.43;;;;;;;;;;5012637;28;20076;-64
2021/06/23 09:06:00;;;;;;;11.25;4.53;;;;;;;;;;5013417;28;20049;-64
2021/06/23 09:08:46;;;;;;;9.55;2.63;;;;;;;;;;5013261;28;20045;-64
2021/06/23 09:11:31;;;;;;;8.75;2.30;;;;;;;;;;5013068;28;20128;-64
2021/06/23 09:14:16;;;;;;;5.20;1.80;;;;;;;;;;4998479;28;20091;-65
2021/06/23 09:17:11;;;;;;;6.03;2.22;;;;;;;;;;5013313;28;20076;-64
2021/06/23 09:19:57;;;;;;;6.32;2.28;;;;;;;;;;5013351;28;20064;-65
2021/06/23 09:22:45;;;;;;;8.80;2.33;;;;;;;;;;5012601;28;20527;-65
2021/06/23 09:25:32;;;;;;;4.20;1.60;;;;;;;;;;5013033;28;20518;-64
2021/06/23 09:28:18;;;;;;;5.85;1.77;;;;;;;;;;5013397;28;20057;-64
2021/06/23 09:31:06;;;;;;;4.05;1.75;;;;;;;;;;5012822;28;20048;-64
2021/06/23 09:33:54;;;;;;;5.78;2.22;;;;;;;;;;5012167;28;20049;-65
2021/06/23 09:36:39;;;;;;;10.68;3.00;;;;;;;;;;5013123;28;20050;-65
2021/06/23 09:39:25;;;;;;;4.47;1.95;;;;;;;;;;5012768;28;20103;-65
2021/06/23 09:42:10;;;;;;;4.00;1.80;;;;;;;;;;5013048;28;20092;-64
2021/06/23 09:45:09;;;;;;;6.07;1.77;;;;;;;;;;5011738;28;20092;-65
2021/06/23 09:48:00;;;;;;;7.97;1.88;;;;;;;;;;5012538;28;20133;-67
2021/06/23 09:50:46;;;;;;;4.20;2.05;;;;;;;;;;5021867;23;20052;-64
2021/06/23 09:53:31;;;;;;;7.80;2.30;;;;;;;;;;5011366;28;20061;-64
2021/06/23 09:56:35;;;;;;;8.60;2.03;;;;;;;;;;5010981;28;20412;-64
2021/06/23 09:59:48;;;;;;;5.20;1.95;;;;;;;;;;5012306;28;20514;-64
2021/06/23 10:02:36;;;;;;;;;;;;;;;;;;5001872;28;20049;-64
2021/06/23 10:05:24;;;;;;;9.63;2.70;;;;;;;;;;4982601;28;19929;-64
2021/06/23 10:08:09;;;;;;;6.65;2.03;;;;;;;;;;4958731;28;20165;-64
2021/06/23 10:10:55;;;;;;;7.00;1.90;;;;;;;;;;4971806;28;20046;-63
2021/06/23 10:13:40;;;;;;;6.72;1.60;;;;;;;;;;4973555;28;20081;-63
2021/06/23 10:16:26;;;;;;;8.75;2.20;;;;;;;;;;4986270;28;20050;-63
2021/06/23 10:19:11;;;;;;;6.57;2.33;;;;;;;;;;5000518;28;20050;-63
2021/06/23 10:21:57;;;;;;;5.15;1.65;;;;;;;;;;4991862;28;20057;-64
2021/06/23 10:24:43;;;;;;;8.70;2.70;;;;;;;;;;4985839;28;20046;-63
2021/06/23 10:27:29;;;;;;;7.07;2.10;;;;;;;;;;4977517;28;20522;-64
2021/06/23 10:30:14;;;;;;;7.40;2.10;;;;;;;;;;4991730;28;20058;-63
2021/06/23 10:33:00;;;;;;;7.18;2.33;;;;;;;;;;5008944;28;20482;-64
2021/06/23 10:35:45;;;;;;;7.38;2.53;;;;;;;;;;5011024;28;20057;-63
2021/06/23 10:38:30;;;;;;;5.15;1.70;;;;;;;;;;5011732;28;20052;-63
2021/06/23 10:41:16;;;;;;;6.70;2.28;;;;;;;;;;4996907;28;20108;-64
2021/06/23 10:44:20;;;;;;;8.45;2.28;;;;;;;;;;5011694;28;20053;-63
2021/06/23 10:47:07;;;;;;;7.32;2.30;;;;;;;;;;5010316;28;20432;-63
2021/06/23 10:49:53;;;;;;;6.63;2.33;;;;;;;;;;5011596;28;20046;-63
2021/06/23 10:52:40;;;;;;;7.28;2.17;;;;;;;;;;5012014;28;20253;-63
2021/06/23 10:55:26;;;;;;;7.22;2.40;;;;;;;;;;5011222;28;20057;-63
2021/06/23 10:58:11;;;;;;;5.75;2.50;;;;;;;;;;5011813;28;20049;-63
2021/06/23 11:01:13;;;;;;;7.30;1.77;;;;;;;;;;5014476;28;20057;-64
2021/06/23 11:04:02;;;;;;;8.93;2.05;;;;;;;;;;5014987;28;20064;-64
2021/06/23 11:06:47;;;;;;;5.53;1.55;;;;;;;;;;5015644;28;20675;-64
2021/06/23 11:09:33;;;;;;;6.97;1.70;;;;;;;;;;5015343;28;20065;-64
2021/06/23 11:12:30;;;;;;;5.97;1.90;;;;;;;;;;5015396;28;20058;-64
2021/06/23 11:15:19;;;;;;;9.20;2.08;;;;;;;;;;5000063;28;20511;-64
2021/06/23 11:18:21;;;;;;;9.45;1.65;;;;;;;;;;5015518;28;20052;-64
2021/06/23 11:21:19;;;;;;;8.38;2.13;;;;;;;;;;5014824;28;20132;-64
2021/06/23 11:24:05;;;;;;;7.90;2.00;;;;;;;;;;5015069;28;20042;-64
2021/06/23 11:26:52;;;;;;;3.75;1.40;;;;;;;;;;4995740;28;20077;-64
2021/06/23 11:29:37;;;;;;;8.02;2.75;;;;;;;;;;4994942;28;20518;-74
2021/06/23 11:32:26;;;;;;;4.97;2.08;;;;;;;;;;4981157;28;20048;-65
2021/06/23 11:35:12;;;;;;;4.78;2.30;;;;;;;;;;4998907;28;20092;-64
2021/06/23 11:37:57;;;;;;;4.97;1.98;;;;;;;;;;5015017;28;20050;-64
2021/06/23 11:40:43;;;;;;;5.75;1.80;;;;;;;;;;5014438;28;20073;-65
2021/06/23 11:43:28;;;;;;;7.65;2.05;;;;;;;;;;5014201;28;20124;-65
2021/06/23 11:46:14;;;;;;;8.20;2.47;;;;;;;;;;5014362;28;20057;-65
2021/06/23 11:48:59;;;;;;;7.55;1.90;;;;;;;;;;5014498;28;20108;-65
2021/06/23 11:51:44;;;;;;;4.28;1.50;;;;;;;;;;5014399;28;20622;-65
2021/06/23 11:54:45;;;;;;;6.40;1.95;;;;;;;;;;5002233;28;20496;-65
2021/06/23 11:57:30;;;;;;;4.18;1.65;;;;;;;;;;5013725;28;20053;-64
2021/06/23 12:00:16;;;;;;;7.10;1.27;;;;;;;;;;5014074;28;20061;-65
2021/06/23 12:03:01;;;;;;;8.30;1.92;;;;;;;;;;5014001;28;20045;-65
2021/06/23 12:05:47;;;;;;;6.32;1.73;;;;;;;;;;5013737;28;20131;-65
2021/06/23 12:08:32;;;;;;;10.95;1.88;;;;;;;;;;5001825;28;20443;-65
2021/06/23 12:11:18;;;;;;;5.30;1.83;;;;;;;;;;5009344;28;20459;-65
2021/06/23 12:14:03;;;;;;;3.95;1.52;;;;;;;;;;5013374;28;20046;-65
2021/06/23 12:16:49;;;;;;;6.85;2.00;;;;;;;;;;5010316;28;20164;-65
2021/06/23 12:19:34;;;;;;;6.80;2.05;;;;;;;;;;5011153;28;20187;-65
2021/06/23 12:22:20;;;;;;;4.35;1.83;;;;;;;;;;5011768;28;20117;-65
2021/06/23 12:25:06;;;;;;;7.97;2.03;;;;;;;;;;5013033;28;20073;-65
2021/06/23 12:27:52;;;;;;;6.57;1.38;;;;;;;;;;5010429;28;20041;-65
2021/06/23 12:30:39;;;;;;;3.28;1.70;;;;;;;;;;5011805;28;20045;-65
2021/06/23 12:33:24;;;;;;;8.70;2.00;;;;;;;;;;5012822;28;20053;-65
2021/06/23 12:36:09;;;;;;;4.20;1.55;;;;;;;;;;5011140;28;20065;-66
2021/06/23 12:38:54;;;;;;;7.45;1.73;;;;;;;;;;5010808;28;20245;-66
2021/06/23 12:41:40;;;;;;;5.18;1.70;;;;;;;;;;5011391;28;20048;-66
2021/06/23 12:44:25;;;;;;;6.63;2.72;;;;;;;;;;5012599;28;20053;-66
2021/06/23 12:47:11;;;;;;;6.13;1.92;;;;;;;;;;5010775;28;20040;-66
2021/06/23 12:49:56;;;;;;;7.10;2.05;;;;;;;;;;5011004;28;20204;-66
2021/06/23 12:52:42;;;;;;;4.50;1.73;;;;;;;;;;5012197;28;20092;-65
2021/06/23 12:55:27;;;;;;;7.47;2.05;;;;;;;;;;5012954;28;20044;-66
2021/06/23 12:58:13;;;;;;;6.10;2.03;;;;;;;;;;5010105;28;20504;-66
2021/06/23 13:00:59;;;;;;;4.95;1.80;;;;;;;;;;5011091;28;20052;-66
2021/06/23 13:03:44;;;;;;;6.43;2.00;;;;;;;;;;5011902;28;20060;-66
2021/06/23 13:06:29;;;;;;;7.70;2.72;;;;;;;;;;5010323;28;20126;-66
2021/06/23 13:09:15;;;;;;;2.95;1.40;;;;;;;;;;5010983;28;20042;-66
2021/06/23 13:12:01;;;;;;;8.00;1.80;;;;;;;;;;5011475;28;20045;-66
2021/06/23 13:14:47;;;;;;;5.65;1.98;;;;;;;;;;5011723;28;20046;-66
2021/06/23 13:17:32;;;;;;;3.85;1.33;;;;;;;;;;5010523;28;20056;-66
2021/06/23 13:20:21;;;;;;;8.40;1.92;;;;;;;;;;5009241;28;20061;-66
2021/06/23 13:23:06;;;;;;;5.85;1.70;;;;;;;;;;5001818;28;20035;-67
2021/06/23 13:25:53;;;;;;;6.25;2.30;;;;;;;;;;5003890;28;20048;-66
2021/06/23 13:28:38;;;;;;;3.17;1.63;;;;;;;;;;5003575;28;20045;-66
2021/06/23 13:31:23;;;;;;;6.22;1.83;;;;;;;;;;5003595;28;20057;-66
2021/06/23 13:34:10;;;;;;;6.93;2.00;;;;;;;;;;5004610;28;20049;-66
2021/06/23 13:36:55;;;;;;;8.45;2.67;;;;;;;;;;5013108;28;20060;-67
2021/06/23 13:39:40;;;;;;;4.28;1.85;;;;;;;;;;5012072;28;20511;-66
2021/06/23 13:42:25;;;;;;;8.80;2.28;;;;;;;;;;5012496;28;20056;-66
2021/06/23 13:45:11;;;;;;;16.90;4.40;;;;;;;;;;4997759;28;20060;-66
2021/06/23 13:47:57;;;;;;;7.43;2.42;;;;;;;;;;4997421;28;20129;-66
2021/06/23 13:50:43;;;;;;;4.50;1.70;;;;;;;;;;5010999;28;20057;-67
2021/06/23 13:53:28;;;;;;;5.85;1.98;;;;;;;;;;5012544;28;20052;-66
2021/06/23 13:56:13;;;;;;;16.48;4.43;;;;;;;;;;5012723;28;20104;-66
2021/06/23 13:58:59;;;;;;;13.60;4.07;;;;;;;;;;5012440;28;20464;-66
2021/06/23 14:01:44;;;;;;;19.35;5.65;;;;;;;;;;5011089;28;20081;-66
2021/06/23 14:04:29;;;;;;;4.25;1.60;;;;;;;;;;5011898;28;20057;-67
2021/06/23 14:07:15;;;;;;;7.78;3.22;;;;;;;;;;5011859;28;20171;-66
2021/06/23 14:10:00;;;;;;;7.38;2.22;;;;;;;;;;5011488;28;20153;-65
2021/06/23 14:12:46;;;;;;;9.77;2.50;;;;;;;;;;4991745;28;20056;-66
2021/06/23 14:15:31;;;;;;;8.80;2.13;;;;;;;;;;4992656;28;20042;-66
2021/06/23 14:18:17;;;;;;;7.47;2.45;;;;;;;;;;4992903;28;20057;-66
2021/06/23 14:21:02;;;;;;;6.35;1.65;;;;;;;;;;4997305;28;20512;-66
2021/06/23 14:23:47;;;;;;;5.18;1.63;;;;;;;;;;5010411;28;20133;-66
2021/06/23 14:26:33;;;;;;;6.28;2.20;;;;;;;;;;5012360;28;20056;-66
2021/06/23 14:29:18;;;;;;;6.05;1.83;;;;;;;;;;4997254;28;20061;-65
2021/06/23 14:32:04;;;;;;;8.23;1.63;;;;;;;;;;5011195;28;20515;-66
2021/06/23 14:34:49;;;;;;;4.25;1.58;;;;;;;;;;5015254;28;20053;-66
2021/06/23 14:37:34;;;;;;;5.38;1.88;;;;;;;;;;5016217;28;20049;-66
2021/06/23 14:40:21;;;;;;;6.93;1.58;;;;;;;;;;5015882;28;20135;-66
2021/06/23 14:43:06;;;;;;;5.57;2.15;;;;;;;;;;5014815;28;20674;-65
2021/06/23 14:45:51;;;;;;;6.10;2.47;;;;;;;;;;5016054;28;20049;-66
2021/06/23 14:48:37;;;;;;;4.05;1.95;;;;;;;;;;5016030;28;20068;-66
2021/06/23 14:51:22;;;;;;;5.95;2.28;;;;;;;;;;5015057;28;20049;-64
2021/06/23 14:54:08;;;;;;;4.25;2.35;;;;;;;;;;5015693;28;20049;-66
2021/06/23 14:56:53;;;;;;;3.88;1.90;;;;;;;;;;5015944;28;20053;-66
2021/06/23 14:59:38;;;;;;;6.38;1.60;;;;;;;;;;5015643;28;20124;-66
2021/06/23 15:02:24;;;;;;;5.25;1.50;;;;;;;;;;5014780;28;20100;-66
2021/06/23 15:05:09;;;;;;;9.05;3.00;;;;;;;;;;5000571;28;20058;-66
2021/06/23 15:07:55;;;;;;;6.40;2.00;;;;;;;;;;5015638;28;20404;-66
2021/06/23 15:10:40;;;;;;;6.72;2.03;;;;;;;;;;5015341;28;20119;-65
2021/06/23 15:13:26;;;;;;;7.35;1.73;;;;;;;;;;5014783;28;20050;-65
2021/06/23 15:16:12;;;;;;;5.05;1.83;;;;;;;;;;5015522;28;20073;-66
2021/06/23 15:18:57;;;;;;;3.58;1.90;;;;;;;;;;5015570;28;20045;-66
2021/06/23 15:21:43;;;;;;;3.55;1.63;;;;;;;;;;5015096;28;20071;-65
2021/06/23 15:24:29;;;;;;;6.70;1.90;;;;;;;;;;5014257;28;20152;-65
2021/06/23 15:27:14;;;;;;;6.05;1.70;;;;;;;;;;5015622;28;20411;-65
2021/06/23 15:30:00;;;;;;;5.28;2.03;;;;;;;;;;5015045;28;20044;-65
2021/06/23 15:32:46;;;;;;;3.70;1.92;;;;;;;;;;5015053;28;20132;-65
2021/06/23 15:35:31;;;;;;;7.22;2.17;;;;;;;;;;4995659;28;20053;-65
2021/06/23 15:38:16;;;;;;;8.32;1.90;;;;;;;;;;4995775;28;20057;-65
2021/06/23 15:41:02;;;;;;;7.18;2.00;;;;;;;;;;4995434;28;20098;-65
2021/06/23 15:43:47;;;;;;;4.93;2.17;;;;;;;;;;4999566;28;20045;-65
2021/06/23 15:46:33;;;;;;;4.32;1.90;;;;;;;;;;5014376;28;20069;-65
2021/06/23 15:49:18;;;;;;;6.15;2.33;;;;;;;;;;5014742;28;20053;-65
2021/06/23 15:52:04;;;;;;;5.10;1.83;;;;;;;;;;5014947;28;20200;-65
2021/06/23 15:54:49;;;;;;;6.93;2.65;;;;;;;;;;5030256;23;20049;-65
2021/06/23 15:57:34;;;;;;;8.32;2.08;;;;;;;;;;4994843;28;20102;-65
2021/06/23 16:00:20;;;;;;;6.00;2.10;;;;;;;;;;4994764;28;20057;-65
2021/06/23 16:03:05;;;;;;;5.88;1.98;;;;;;;;;;4960600;28;20141;-64
2021/06/23 16:05:52;;;;;;;4.65;1.95;;;;;;;;;;4976107;28;20153;-65
2021/06/23 16:08:38;;;;;;;6.75;2.10;;;;;;;;;;4971565;28;20536;-64
2021/06/23 16:11:23;;;;;;;6.20;2.33;;;;;;;;;;4979438;28;20121;-65
2021/06/23 16:14:08;;;;;;;4.63;2.17;;;;;;;;;;4980504;28;20129;-64
2021/06/23 16:16:54;;;;;;;6.90;2.20;;;;;;;;;;4980565;28;20039;-64
2021/06/23 16:19:41;;;;;;;7.68;2.90;;;;;;;;;;4972752;28;20058;-64
2021/06/23 16:22:30;;;;;;;7.93;1.90;;;;;;;;;;4972302;28;20053;-65
2021/06/23 16:25:15;;;;;;;3.38;1.95;;;;;;;;;;4976743;28;20046;-65
2021/06/23 16:28:00;;;;;;;7.53;2.05;;;;;;;;;;4968395;28;20046;-64
2021/06/23 16:30:46;;;;;;;5.13;2.35;;;;;;;;;;4972278;28;20086;-64
2021/06/23 16:33:31;;;;;;;8.02;3.00;;;;;;;;;;4972688;28;20046;-64
2021/06/23 16:36:16;;;;;;;7.07;2.00;;;;;;;;;;4981366;28;20057;-65
2021/06/23 16:39:01;;;;;;;7.70;2.78;;;;;;;;;;4992609;28;20049;-65
2021/06/23 16:41:47;;;;;;;6.70;3.05;;;;;;;;;;4992217;28;20170;-65
2021/06/23 16:44:32;;;;;;;4.63;1.80;;;;;;;;;;4991396;28;20053;-64
2021/06/23 16:47:18;;;;;;;5.35;2.47;;;;;;;;;;4989567;28;20202;-64